createdAt,value
2023-02-23T00:01:22.563Z,100782.00
2023-02-23T00:03:50.293Z,100782.00
2023-02-23T00:06:18.602Z,100775.88
2023-02-23T00:08:47.917Z,100788.31
2023-02-23T00:11:16.433Z,100777.75
2023-02-23T00:13:46.325Z,100780.50
2023-02-23T00:16:18.152Z,100769.16
2023-02-23T00:18:48.568Z,100759.66
2023-02-23T00:21:17.008Z,100766.53
2023-02-23T00:23:49.419Z,100769.09
2023-02-23T00:26:16.628Z,100765.78
2023-02-23T00:28:43.640Z,100755.31
2023-02-23T00:31:11.707Z,100761.34
2023-02-23T00:33:39.297Z,100757.22
2023-02-23T00:36:08.786Z,100752.91
2023-02-23T00:38:36.463Z,100759.69
2023-02-23T00:41:08.135Z,100750.44
2023-02-23T00:43:37.493Z,100750.72
2023-02-23T00:46:08.146Z,100750.91
2023-02-23T00:48:35.626Z,100756.31
2023-02-23T00:51:04.559Z,100752.91
2023-02-23T00:53:31.569Z,100753.75
2023-02-23T00:55:59.236Z,100753.97
2023-02-23T00:58:27.181Z,100757.00
2023-02-23T01:00:53.899Z,100759.31
2023-02-23T01:03:20.450Z,100758.38
2023-02-23T01:05:49.947Z,100751.22
2023-02-23T01:08:17.527Z,100755.66
2023-02-23T01:10:52.408Z,100756.69
2023-02-23T01:13:20.576Z,100762.44
2023-02-23T01:15:52.178Z,100754.16
2023-02-23T01:18:20.640Z,100751.41
2023-02-23T01:20:47.285Z,100751.59
2023-02-23T01:23:15.437Z,100748.03
2023-02-23T02:07:28.990Z,100709.72
2023-02-23T02:10:13.103Z,100716.44
2023-02-23T02:12:41.438Z,100701.38
2023-02-23T02:15:16.926Z,100704.00
2023-02-23T02:17:58.242Z,100702.94
2023-02-23T02:20:33.383Z,100698.63
2023-02-23T02:23:08.423Z,100701.75
2023-02-23T02:25:34.928Z,100705.50
2023-02-23T02:28:35.785Z,100697.13
2023-02-23T02:31:15.646Z,100700.34
2023-02-23T02:33:53.086Z,100694.03
2023-02-23T02:36:37.898Z,100694.66
2023-02-23T02:39:34.706Z,100694.88
2023-02-23T02:42:08.858Z,100693.66
2023-02-23T02:44:44.475Z,100686.00
2023-02-23T02:47:36.201Z,100681.00
2023-02-23T02:50:15.666Z,100686.59
2023-02-23T02:52:55.782Z,100681.19
2023-02-23T02:55:26.286Z,100686.59
2023-02-23T02:57:58.366Z,100685.44
2023-02-23T03:01:10.086Z,100684.69
2023-02-23T03:04:04.637Z,100683.09
2023-02-23T03:06:57.306Z,100672.25
2023-02-23T03:10:02.635Z,100672.56
2023-02-23T03:13:04.765Z,100674.44
2023-02-23T03:16:15.281Z,100675.47
2023-02-23T03:19:30.486Z,100666.69
2023-02-23T03:22:30.747Z,100670.56
2023-02-23T03:25:54.116Z,100671.69
2023-02-23T03:28:45.628Z,100673.00
2023-02-23T03:31:41.693Z,100670.38
2023-02-23T03:34:36.111Z,100668.03
2023-02-23T03:37:37.004Z,100659.47
2023-02-23T03:40:37.716Z,100654.38
2023-02-23T03:43:31.966Z,100667.03
2023-02-23T03:46:20.690Z,100660.78
2023-02-23T04:41:13.855Z,100649.31
2023-02-23T05:40:25.917Z,100628.88
2023-02-23T05:42:58.132Z,100628.97
2023-02-23T05:45:24.584Z,100633.31
2023-02-23T05:47:52.523Z,100634.03
2023-02-23T05:50:19.085Z,100642.91
2023-02-23T05:52:45.525Z,100640.34
2023-02-23T05:55:12.462Z,100640.44
2023-02-23T05:57:40.946Z,100642.50
2023-02-23T06:00:08.557Z,100658.06
2023-02-23T06:02:36.500Z,100652.69
2023-02-23T06:05:03.413Z,100661.13
2023-02-23T06:07:29.879Z,100653.78
2023-02-23T06:09:56.327Z,100661.13
2023-02-23T06:12:23.796Z,100657.41
2023-02-23T06:14:50.831Z,100663.03
2023-02-23T06:17:17.431Z,100657.94
2023-02-23T06:19:43.961Z,100656.31
2023-02-23T06:22:10.397Z,100656.81
2023-02-23T06:24:37.108Z,100656.50
2023-02-23T06:27:04.224Z,100653.78
2023-02-23T06:29:30.689Z,100661.34
2023-02-23T06:31:59.704Z,100666.41
2023-02-23T06:34:27.127Z,100664.53
2023-02-23T06:36:53.596Z,100668.19
2023-02-23T06:39:20.088Z,100667.38
2023-02-23T06:41:46.577Z,100663.63
2023-02-23T06:44:13.134Z,100664.56
2023-02-23T06:46:39.699Z,100669.66
2023-02-23T06:49:06.208Z,100664.00
2023-02-23T06:51:32.889Z,100667.38
2023-02-23T06:53:59.306Z,100669.19
2023-02-23T06:56:25.827Z,100666.66
2023-02-23T06:58:52.295Z,100666.28
2023-02-23T07:01:19.656Z,100675.50
2023-02-23T07:03:46.311Z,100676.66
2023-02-23T07:06:12.943Z,100675.34
2023-02-23T07:08:39.623Z,100676.72
2023-02-23T07:11:08.394Z,100676.84
2023-02-23T07:13:35.063Z,100676.06
2023-02-23T07:16:01.780Z,100673.81
2023-02-23T07:18:28.276Z,100672.09
2023-02-23T07:20:54.784Z,100668.50
2023-02-23T07:23:22.497Z,100675.75
2023-02-23T07:25:54.219Z,100665.69
2023-02-23T07:28:21.398Z,100671.53
2023-02-23T07:30:49.905Z,100667.00
2023-02-23T07:33:16.883Z,100671.25
2023-02-23T07:35:45.171Z,100673.72
2023-02-23T07:38:13.491Z,100667.78
2023-02-23T07:40:39.958Z,100663.25
2023-02-23T07:43:07.504Z,100667.38
2023-02-23T07:45:34.020Z,100668.91
2023-02-23T08:06:47.838Z,100660.22
2023-02-23T08:09:14.541Z,100651.41
2023-02-23T08:11:41.060Z,100652.44
2023-02-23T08:19:30.785Z,100652.38
2023-02-23T08:21:57.379Z,100656.31
2023-02-23T08:24:25.046Z,100656.72
2023-02-23T08:26:51.598Z,100652.66
2023-02-23T08:29:18.140Z,100654.34
2023-02-23T08:31:44.965Z,100655.94
2023-02-23T08:34:11.637Z,100657.53
2023-02-23T08:36:38.838Z,100651.47
2023-02-23T09:08:41.018Z,100659.91
2023-02-23T09:11:07.831Z,100654.19
2023-02-23T09:13:34.406Z,100658.28
2023-02-23T09:16:00.976Z,100659.47
2023-02-23T09:18:29.444Z,100657.97
2023-02-23T09:20:56.280Z,100666.84
2023-02-23T09:23:24.151Z,100673.72
2023-02-23T09:25:50.821Z,100666.84
2023-02-23T09:28:19.388Z,100665.59
2023-02-23T09:30:47.325Z,100668.50
2023-02-23T09:33:14.104Z,100667.00
2023-02-23T09:35:41.559Z,100659.59
2023-02-23T09:38:08.598Z,100662.13
2023-02-23T09:40:55.571Z,100652.56
2023-02-23T09:43:37.189Z,100659.34
2023-02-23T09:46:21.632Z,100661.91
2023-02-23T09:48:48.358Z,100663.44
2023-02-23T09:51:21.817Z,100670.44
2023-02-23T10:07:26.095Z,100640.34
2023-02-23T10:10:30.641Z,100646.28
2023-02-23T10:13:20.031Z,100646.03
2023-02-23T10:15:49.777Z,100650.50
2023-02-23T10:18:56.767Z,100654.00
2023-02-23T10:21:41.993Z,100643.19
2023-02-23T10:24:19.460Z,100651.34
2023-02-23T10:26:51.297Z,100646.84
2023-02-23T10:29:41.305Z,100647.16
2023-02-23T10:32:39.258Z,100647.41
2023-02-23T10:35:14.032Z,100638.25
2023-02-23T10:37:40.768Z,100635.91
2023-02-23T10:40:14.061Z,100639.94
2023-02-23T10:42:40.583Z,100634.84
2023-02-23T10:45:18.694Z,100628.78
2023-02-23T10:47:46.365Z,100637.91
2023-02-23T10:50:14.409Z,100637.13
2023-02-23T10:52:45.463Z,100640.75
2023-02-23T10:55:27.563Z,100635.84
2023-02-23T10:58:05.073Z,100632.63
2023-02-23T11:00:34.413Z,100633.31
2023-02-23T11:03:03.416Z,100619.84
2023-02-23T11:05:33.714Z,100612.56
2023-02-23T11:08:21.830Z,100618.66
2023-02-23T11:11:01.193Z,100619.84
2023-02-23T11:13:33.452Z,100614.06
2023-02-23T11:16:11.215Z,100615.44
2023-02-23T11:18:39.370Z,100617.44
2023-02-23T11:21:11.198Z,100617.22
2023-02-23T11:23:40.340Z,100612.38
2023-02-23T11:26:23.024Z,100615.19
2023-02-23T11:28:56.016Z,100611.66
2023-02-23T11:31:30.023Z,100619.66
2023-02-23T11:33:58.472Z,100612.25
2023-02-23T11:36:34.247Z,100608.78
2023-02-23T11:39:14.251Z,100606.56
2023-02-23T11:41:40.766Z,100601.81
2023-02-23T11:44:07.479Z,100596.38
2023-02-23T11:46:37.818Z,100589.81
2023-02-23T11:49:12.716Z,100588.16
2023-02-23T11:51:46.123Z,100589.09
2023-02-23T11:54:33.790Z,100574.41
2023-02-23T11:57:02.685Z,100578.03
2023-02-23T11:59:33.604Z,100583.81
2023-02-23T12:02:30.222Z,100574.41
2023-02-23T12:05:03.235Z,100568.09
2023-02-23T12:07:38.771Z,100566.41
2023-02-23T12:10:15.123Z,100570.47
2023-02-23T12:12:53.085Z,100569.09
2023-02-23T12:15:42.698Z,100564.78
2023-02-23T12:18:23.727Z,100571.88
2023-02-23T12:20:54.188Z,100568.31
2023-02-23T12:23:26.497Z,100573.25
2023-02-23T12:26:12.963Z,100570.03
2023-02-23T12:28:47.940Z,100572.34
2023-02-23T12:31:31.707Z,100568.75
2023-02-23T12:34:05.182Z,100563.94
2023-02-23T12:36:43.781Z,100569.06
2023-02-23T12:39:27.307Z,100565.41
2023-02-23T12:42:09.398Z,100553.53
2023-02-23T12:44:49.381Z,100557.41
2023-02-23T12:47:33.618Z,100559.13
2023-02-23T12:50:13.139Z,100556.69
2023-02-23T12:53:18.283Z,100566.78
2023-02-23T12:56:21.577Z,100557.53
2023-02-23T12:58:59.528Z,100555.91
2023-02-23T13:01:39.255Z,100557.41
2023-02-23T13:04:36.576Z,100550.69
2023-02-23T13:07:20.576Z,100548.84
2023-02-23T13:10:02.410Z,100547.28
2023-02-23T13:12:49.682Z,100543.19
2023-02-23T13:15:27.116Z,100543.66
2023-02-23T13:18:11.608Z,100545.91
2023-02-23T13:20:49.083Z,100539.75
2023-02-23T13:23:40.611Z,100540.72
2023-02-23T13:26:44.433Z,100538.19
2023-02-23T13:29:49.521Z,100543.06
2023-02-23T13:32:22.742Z,100535.41
2023-02-23T13:35:07.554Z,100538.59
2023-02-23T13:37:45.593Z,100533.28
2023-02-23T13:40:39.341Z,100532.84
2023-02-23T13:43:30.604Z,100548.97
2023-02-23T13:46:22.148Z,100546.75
2023-02-23T13:49:02.073Z,100548.81
2023-02-23T13:51:44.191Z,100547.13
2023-02-23T13:54:13.661Z,100543.59
2023-02-23T13:56:47.662Z,100549.34
2023-02-23T13:59:20.840Z,100551.28
2023-02-23T14:01:50.701Z,100552.16
2023-02-23T14:04:34.290Z,100554.16
2023-02-23T14:07:09.914Z,100546.16
2023-02-23T14:09:58.444Z,100547.56
2023-02-23T14:12:32.998Z,100548.38
2023-02-23T14:15:28.369Z,100554.53
2023-02-23T14:18:16.770Z,100551.88
2023-02-23T14:20:54.731Z,100559.91
2023-02-23T14:34:13.310Z,100560.59
2023-02-23T14:36:44.526Z,100558.97
2023-02-23T14:39:26.579Z,100563.16
2023-02-23T14:41:59.247Z,100564.31
2023-02-23T14:47:14.009Z,100566.66
2023-02-23T14:49:54.662Z,100568.38
2023-02-23T14:52:28.402Z,100566.53
2023-02-23T14:55:13.073Z,100564.34
2023-02-23T15:00:32.368Z,100560.75
2023-02-23T15:03:05.044Z,100563.00
2023-02-23T15:05:36.461Z,100570.59
2023-02-23T15:08:08.067Z,100568.78
2023-02-23T15:10:39.322Z,100551.44
2023-02-23T15:13:31.727Z,100562.88
2023-02-23T15:16:03.828Z,100556.38
2023-02-23T15:18:35.884Z,100554.28
2023-02-23T15:21:12.135Z,100555.38
2023-02-23T15:23:38.971Z,100547.00
2023-02-23T16:07:22.547Z,100543.16
2023-02-23T16:09:49.004Z,100542.50
2023-02-23T16:12:36.905Z,100541.03
2023-02-23T16:15:13.768Z,100542.72
2023-02-23T16:17:45.252Z,100542.16
2023-02-23T18:49:40.952Z,100529.28
2023-02-23T18:52:09.184Z,100520.78
2023-02-23T18:54:37.525Z,100528.03
2023-02-23T18:57:05.656Z,100522.13
2023-02-23T18:59:33.455Z,100524.63
2023-02-23T19:01:59.918Z,100521.28
2023-02-23T19:04:26.483Z,100523.47
2023-02-23T19:06:53.007Z,100524.03
2023-02-23T19:09:21.349Z,100522.97
2023-02-23T19:11:51.222Z,100517.63
2023-02-23T19:14:22.073Z,100512.56
2023-02-23T19:16:50.683Z,100517.19
2023-02-23T19:19:17.204Z,100513.41
2023-02-23T19:21:43.744Z,100511.09
2023-02-23T19:24:10.329Z,100513.09
2023-02-23T19:26:38.067Z,100508.38
2023-02-23T19:29:05.204Z,100510.91
2023-02-23T19:31:32.054Z,100504.84
2023-02-23T19:33:59.656Z,100495.53
2023-02-23T19:36:30.774Z,100506.94
2023-02-23T19:39:05.865Z,100501.66
2023-02-23T19:41:34.325Z,100506.34
2023-02-23T19:44:01.336Z,100500.91
2023-02-23T19:46:28.582Z,100498.16
2023-02-23T19:48:55.889Z,100508.28
2023-02-23T19:51:23.554Z,100505.25
2023-02-23T19:53:53.002Z,100502.97
2023-02-23T19:56:19.442Z,100495.97
2023-02-23T19:58:46.851Z,100497.19
2023-02-23T20:01:16.899Z,100495.75
2023-02-23T20:03:44.908Z,100501.66
2023-02-23T20:06:13.965Z,100501.66
2023-02-23T20:08:41.814Z,100497.31
2023-02-23T20:11:09.021Z,100503.97
2023-02-23T20:13:38.576Z,100513.97
2023-02-23T20:16:09.035Z,100508.81
2023-02-23T20:18:38.508Z,100523.81
2023-02-23T20:21:17.130Z,100518.03
2023-02-23T20:23:45.160Z,100527.00
2023-02-23T20:26:19.504Z,100523.47
2023-02-23T20:28:46.431Z,100517.34
2023-02-23T20:31:21.066Z,100521.19
2023-02-23T20:33:51.712Z,100520.97
2023-02-23T20:36:20.481Z,100524.91
2023-02-23T20:38:47.097Z,100516.34
2023-02-23T20:41:13.638Z,100512.63
2023-02-23T20:43:40.426Z,100516.13
2023-02-23T20:46:07.222Z,100516.84
2023-02-23T20:48:35.359Z,100511.19
2023-02-23T20:51:02.517Z,100506.13
2023-02-23T20:53:29.440Z,100502.38
2023-02-23T20:55:56.134Z,100498.63
2023-02-23T20:58:25.154Z,100500.94
2023-02-23T21:00:57.064Z,100500.81
2023-02-23T21:03:25.076Z,100498.78
2023-02-23T21:05:51.968Z,100504.69
2023-02-23T21:08:19.078Z,100506.84
2023-02-23T21:10:45.895Z,100493.94
2023-02-23T21:13:13.574Z,100498.16
2023-02-23T21:15:41.123Z,100496.47
2023-02-23T21:18:08.317Z,100499.84
2023-02-23T21:20:35.382Z,100491.75
2023-02-23T21:23:04.122Z,100490.69
2023-02-23T21:25:30.822Z,100483.56
2023-02-23T21:27:57.475Z,100488.28
2023-02-23T21:30:28.535Z,100485.75
2023-02-23T21:32:56.714Z,100483.81
2023-02-23T22:16:15.560Z,100459.44
2023-02-23T22:18:42.520Z,100453.44
2023-02-23T22:21:11.750Z,100450.56
2023-02-23T22:23:40.062Z,100451.75
2023-02-23T22:26:07.274Z,100449.81
2023-02-23T22:28:34.447Z,100448.25
2023-02-23T22:31:06.984Z,100451.41
2023-02-23T22:33:35.116Z,100446.19
2023-02-23T23:25:34.013Z,100415.22
2023-02-23T23:28:00.444Z,100406.53
2023-02-23T23:30:29.271Z,100411.00
2023-02-23T23:32:57.545Z,100403.06
2023-02-23T23:35:25.930Z,100399.69
2023-02-23T23:37:52.467Z,100395.84
2023-02-23T23:40:24.754Z,100396.53
2023-02-23T23:42:51.703Z,100398.13
2023-02-23T23:45:24.068Z,100400.88
2023-02-23T23:47:50.858Z,100397.03
2023-02-23T23:50:17.644Z,100391.47
2023-02-23T23:52:45.250Z,100395.34
2023-02-23T23:55:14.800Z,100387.38
2023-02-23T23:57:42.193Z,100394.88
